Aviation Digital Data Service (ADDS)

Output produced by TAFs form (0723 UTC 29 March 2015)
found at http://aviationweather.gov/adds/tafs/
 
KSAF 290534Z 2906/3006 01010KT P6SM SKC 
     FM292030 25008G15KT P6SM SCT140 SCT250 
     FM300200 14008KT P6SM FEW140 SCT250 
     FM300500 11012G22KT P6SM FEW140 SCT250